createdAt,value
2018-03-03T00:00:06.972Z,52.20
2018-03-03T00:02:34.510Z,52.50
2018-03-03T00:05:02.548Z,52.50
2018-03-03T00:07:30.068Z,52.70
2018-03-03T00:09:57.841Z,52.80
2018-03-03T00:12:25.432Z,52.80
2018-03-03T00:14:53.207Z,52.80
2018-03-03T00:17:20.786Z,53.00
2018-03-03T00:19:48.349Z,52.90
2018-03-03T00:22:27.746Z,52.70
2018-03-03T00:24:55.287Z,53.00
2018-03-03T00:27:22.872Z,52.90
2018-03-03T00:29:50.408Z,53.10
2018-03-03T00:32:18.136Z,53.30
2018-03-03T00:34:45.670Z,53.30
2018-03-03T00:37:13.384Z,53.50
2018-03-03T00:39:41.117Z,53.30
2018-03-03T00:42:08.922Z,53.20
2018-03-03T00:44:36.462Z,53.20
2018-03-03T00:47:03.965Z,53.30
2018-03-03T00:49:31.600Z,53.10
2018-03-03T00:51:59.998Z,52.90
2018-03-03T00:54:27.575Z,53.00
2018-03-03T00:56:55.098Z,53.00
2018-03-03T00:59:23.483Z,53.10
2018-03-03T01:01:51.068Z,53.10
2018-03-03T01:04:18.590Z,53.00
2018-03-03T01:06:46.934Z,52.40
2018-03-03T01:09:14.556Z,52.40
2018-03-03T01:11:42.061Z,52.30
2018-03-03T01:14:09.640Z,52.40
2018-03-03T01:16:37.159Z,52.10
2018-03-03T01:19:05.229Z,52.20
2018-03-03T01:21:32.800Z,52.20
2018-03-03T01:24:00.310Z,52.00
2018-03-03T01:26:27.888Z,52.10
2018-03-03T01:28:55.636Z,52.20
2018-03-03T01:31:23.153Z,52.20
2018-03-03T01:33:50.703Z,52.50
2018-03-03T01:36:18.411Z,52.50
2018-03-03T01:38:45.916Z,52.60
2018-03-03T01:41:13.597Z,52.40
2018-03-03T01:43:41.236Z,53.40
2018-03-03T01:46:08.743Z,52.90
2018-03-03T01:48:36.271Z,52.80
2018-03-03T01:51:03.969Z,52.80
2018-03-03T01:53:33.132Z,53.10
2018-03-03T01:56:00.731Z,53.10
2018-03-03T01:58:28.245Z,53.30
2018-03-03T02:00:55.808Z,53.10
2018-03-03T02:03:23.364Z,52.80
2018-03-03T02:05:50.944Z,52.90
2018-03-03T02:08:18.515Z,53.00
2018-03-03T02:10:46.079Z,52.90
2018-03-03T02:13:14.375Z,52.60
2018-03-03T02:15:41.970Z,52.50
2018-03-03T02:18:10.044Z,52.60
2018-03-03T02:20:37.577Z,52.70
2018-03-03T02:23:05.124Z,52.90
2018-03-03T02:25:32.966Z,52.90
2018-03-03T02:28:00.506Z,53.10
2018-03-03T02:30:28.189Z,52.80
2018-03-03T02:32:56.497Z,52.90
2018-03-03T02:35:24.025Z,52.90
2018-03-03T02:37:51.570Z,53.20
2018-03-03T02:40:19.142Z,53.30
2018-03-03T02:42:48.202Z,53.50
2018-03-03T02:45:15.714Z,53.40
2018-03-03T02:47:43.247Z,53.40
2018-03-03T02:50:10.766Z,53.60
2018-03-03T02:52:38.360Z,53.80
2018-03-03T02:55:06.125Z,53.80
2018-03-03T02:57:33.792Z,53.80
2018-03-03T03:00:02.120Z,54.20
2018-03-03T03:02:29.769Z,54.20
2018-03-03T03:04:58.171Z,54.40
2018-03-03T03:07:25.708Z,54.40
2018-03-03T03:09:53.246Z,54.40
2018-03-03T03:12:21.055Z,54.40
2018-03-03T03:14:48.716Z,54.50
2018-03-03T03:17:16.473Z,54.40
2018-03-03T03:19:44.004Z,54.40
2018-03-03T03:22:11.527Z,54.40
2018-03-03T03:24:39.121Z,54.50
2018-03-03T03:27:07.598Z,54.40
2018-03-03T03:29:35.131Z,54.30
2018-03-03T03:32:02.720Z,54.10
2018-03-03T03:34:30.296Z,54.50
2018-03-03T03:36:58.267Z,54.40
2018-03-03T03:39:26.616Z,54.20
2018-03-03T03:41:54.669Z,54.20
2018-03-03T03:44:22.522Z,53.90
2018-03-03T03:46:50.163Z,54.00
2018-03-03T03:49:17.724Z,54.20
2018-03-03T03:51:45.502Z,54.00
2018-03-03T03:54:13.283Z,54.30
2018-03-03T03:56:40.819Z,54.20
2018-03-03T03:59:08.375Z,54.60
2018-03-03T04:01:36.085Z,54.10
2018-03-03T04:04:03.626Z,54.20
2018-03-03T04:06:31.186Z,54.30
2018-03-03T04:08:58.691Z,54.20
2018-03-03T04:11:27.057Z,54.30
2018-03-03T04:13:54.714Z,54.10
2018-03-03T04:16:22.216Z,54.40
2018-03-03T04:18:49.754Z,53.60
2018-03-03T04:21:17.928Z,53.60
2018-03-03T04:23:45.450Z,53.80
2018-03-03T04:26:13.016Z,53.80
2018-03-03T04:28:41.230Z,53.90
2018-03-03T04:31:08.784Z,54.00
2018-03-03T04:33:36.418Z,54.10
2018-03-03T04:36:03.997Z,54.20
2018-03-03T04:38:31.533Z,54.20
2018-03-03T04:40:59.128Z,54.10
2018-03-03T04:43:28.156Z,54.10
2018-03-03T04:45:55.915Z,53.90
2018-03-03T04:48:23.454Z,54.10
2018-03-03T04:50:51.033Z,54.40
2018-03-03T04:53:18.580Z,54.50
2018-03-03T04:55:46.137Z,54.70
2018-03-03T04:58:13.720Z,54.90
2018-03-03T05:00:52.042Z,55.10
2018-03-03T05:03:34.492Z,55.20
2018-03-03T05:06:05.389Z,55.20
2018-03-03T05:08:33.347Z,55.30
2018-03-03T05:11:00.883Z,55.30
2018-03-03T05:13:32.763Z,55.60
2018-03-03T05:16:03.276Z,55.60
2018-03-03T05:18:37.532Z,55.50
2018-03-03T05:21:11.451Z,55.50
2018-03-03T05:23:44.909Z,55.50
2018-03-03T05:26:18.089Z,55.50
2018-03-03T05:28:51.399Z,55.60
2018-03-03T05:31:24.602Z,55.90
2018-03-03T05:33:59.698Z,56.00
2018-03-03T05:39:48.424Z,56.30
2018-03-03T05:42:18.912Z,56.40
2018-03-03T05:45:05.355Z,57.20
2018-03-03T05:47:47.825Z,56.50
2018-03-03T05:50:16.155Z,56.30
2018-03-03T05:53:02.556Z,56.80
2018-03-03T05:55:45.034Z,56.30
2018-03-03T05:58:18.100Z,55.90
2018-03-03T06:00:51.387Z,55.80
2018-03-03T06:03:20.351Z,55.90
2018-03-03T06:08:57.490Z,55.30
2018-03-03T06:11:25.094Z,55.20
2018-03-03T06:13:52.868Z,54.90
2018-03-03T06:16:20.447Z,54.50
2018-03-03T06:18:48.682Z,53.90
2018-03-03T06:21:16.338Z,53.60
2018-03-03T06:23:43.865Z,53.10
2018-03-03T06:26:11.427Z,52.90
2018-03-03T06:28:38.951Z,51.90
2018-03-03T06:31:06.606Z,51.30
2018-03-03T06:33:34.260Z,50.60
2018-03-03T06:36:01.825Z,50.10
2018-03-03T06:38:29.338Z,49.50
2018-03-03T06:40:56.848Z,49.10
2018-03-03T06:43:24.488Z,48.50
2018-03-03T06:45:52.003Z,48.10
2018-03-03T06:48:19.556Z,47.40
2018-03-03T06:50:47.104Z,47.20
2018-03-03T06:53:14.673Z,46.50
2018-03-03T06:55:42.206Z,45.90
2018-03-03T06:58:09.754Z,46.10
2018-03-03T07:00:41.164Z,45.70
2018-03-03T07:03:08.700Z,45.30
2018-03-03T07:05:36.257Z,44.90
2018-03-03T07:08:03.805Z,44.60
2018-03-03T07:10:31.761Z,43.70
2018-03-03T07:12:59.370Z,42.90
2018-03-03T07:15:26.888Z,42.00
2018-03-03T07:17:54.417Z,41.80
2018-03-03T07:20:22.044Z,41.50
2018-03-03T07:22:49.559Z,41.10
2018-03-03T07:25:17.131Z,40.80
2018-03-03T07:27:44.659Z,40.00
2018-03-03T07:30:14.988Z,40.60
2018-03-03T07:32:43.378Z,40.60
2018-03-03T07:35:11.291Z,40.00
2018-03-03T07:37:39.338Z,39.60
2018-03-03T07:40:06.892Z,39.40
2018-03-03T07:42:34.540Z,39.10
2018-03-03T07:45:02.082Z,38.70
2018-03-03T07:47:29.623Z,39.20
2018-03-03T07:49:58.038Z,39.50
2018-03-03T07:52:25.869Z,39.50
2018-03-03T07:54:53.876Z,39.70
2018-03-03T07:57:21.432Z,39.60
2018-03-03T07:59:48.967Z,40.00
2018-03-03T08:02:18.398Z,40.20
2018-03-03T08:04:45.976Z,40.20
2018-03-03T08:07:13.647Z,40.00
2018-03-03T08:09:44.865Z,41.00
2018-03-03T08:12:12.442Z,41.30
2018-03-03T08:14:40.056Z,41.30
2018-03-03T08:17:07.624Z,40.90
2018-03-03T08:19:35.152Z,41.00
2018-03-03T08:22:02.869Z,40.90
2018-03-03T08:24:30.397Z,40.90
2018-03-03T08:26:57.927Z,40.80
2018-03-03T08:29:25.640Z,41.30
2018-03-03T08:31:53.327Z,42.30
2018-03-03T08:34:20.875Z,41.40
2018-03-03T08:36:48.410Z,40.80
2018-03-03T08:39:15.957Z,41.10
2018-03-03T08:41:43.725Z,41.00
2018-03-03T08:44:11.292Z,41.10
2018-03-03T08:46:39.623Z,41.40
2018-03-03T08:49:08.645Z,41.30
2018-03-03T08:51:36.503Z,41.00
2018-03-03T08:54:04.032Z,40.50
2018-03-03T08:56:31.591Z,40.80
2018-03-03T08:58:59.164Z,41.30
2018-03-03T09:01:26.696Z,41.90
2018-03-03T09:03:54.437Z,42.10
2018-03-03T09:06:22.125Z,42.80
2018-03-03T09:08:50.122Z,42.00
2018-03-03T09:11:17.731Z,41.90
2018-03-03T09:13:45.352Z,41.90
2018-03-03T09:16:12.878Z,41.40
2018-03-03T09:18:41.153Z,41.50
2018-03-03T09:21:09.020Z,41.60
2018-03-03T09:23:37.909Z,41.30
2018-03-03T09:26:05.464Z,41.40
2018-03-03T09:28:33.628Z,41.50
2018-03-03T09:31:01.145Z,41.20
2018-03-03T09:33:29.588Z,41.30
2018-03-03T09:35:57.120Z,41.30
2018-03-03T09:38:24.669Z,41.30
2018-03-03T09:40:53.076Z,40.60
2018-03-03T09:43:20.678Z,41.10
2018-03-03T09:45:48.203Z,40.30
2018-03-03T09:48:17.164Z,40.40
2018-03-03T09:50:45.481Z,40.10
2018-03-03T09:53:13.042Z,40.10
2018-03-03T09:55:40.616Z,40.00
2018-03-03T09:58:08.225Z,40.20
2018-03-03T10:00:37.066Z,40.30
2018-03-03T10:03:04.632Z,40.30
2018-03-03T10:05:32.284Z,40.30
2018-03-03T10:07:59.804Z,40.20
2018-03-03T10:10:27.331Z,40.00
2018-03-03T10:12:54.871Z,40.20
2018-03-03T10:15:22.518Z,40.40
2018-03-03T10:17:51.056Z,39.90
2018-03-03T10:20:18.681Z,39.70
2018-03-03T10:22:46.228Z,39.80
2018-03-03T10:25:13.860Z,39.70
2018-03-03T10:27:41.445Z,39.90
2018-03-03T10:30:09.045Z,48.30
2018-03-03T10:32:37.434Z,40.50
2018-03-03T10:35:04.963Z,40.10
2018-03-03T10:37:32.492Z,40.00
2018-03-03T10:40:00.022Z,40.50
2018-03-03T10:42:28.645Z,40.30
2018-03-03T10:44:57.215Z,40.20
2018-03-03T10:47:24.803Z,40.00
2018-03-03T10:49:52.355Z,39.90
2018-03-03T10:52:19.918Z,40.30
2018-03-03T10:54:47.432Z,40.50
2018-03-03T10:57:15.155Z,40.30
2018-03-03T10:59:42.699Z,40.50
2018-03-03T11:02:10.259Z,40.70
2018-03-03T11:04:37.821Z,40.30
2018-03-03T11:07:05.332Z,40.20
2018-03-03T11:09:33.735Z,39.50
2018-03-03T11:12:02.152Z,39.50
2018-03-03T11:14:30.097Z,39.50
2018-03-03T11:16:57.606Z,38.70
2018-03-03T11:19:25.128Z,39.00
2018-03-03T11:21:52.674Z,39.20
2018-03-03T11:24:20.217Z,39.00
2018-03-03T11:26:47.738Z,39.10
2018-03-03T11:29:15.267Z,39.40
2018-03-03T11:31:43.115Z,39.30
2018-03-03T11:34:10.638Z,39.00
2018-03-03T11:36:39.283Z,38.90
2018-03-03T11:39:06.825Z,39.00
2018-03-03T11:41:34.564Z,38.80
2018-03-03T11:44:02.333Z,38.60
2018-03-03T11:46:29.881Z,38.70
2018-03-03T11:48:57.439Z,38.70
2018-03-03T11:51:25.827Z,38.00
2018-03-03T11:53:53.401Z,38.00
2018-03-03T11:56:20.954Z,38.10
2018-03-03T11:58:48.480Z,38.50
2018-03-03T12:01:16.078Z,38.60
2018-03-03T12:03:43.769Z,38.50
2018-03-03T12:06:11.290Z,38.10
2018-03-03T12:08:38.877Z,38.10
2018-03-03T12:11:06.452Z,38.00
2018-03-03T12:13:34.181Z,37.90
2018-03-03T12:16:01.756Z,37.60
2018-03-03T12:18:29.266Z,37.70
2018-03-03T12:20:58.091Z,37.90
2018-03-03T12:23:25.669Z,37.80
2018-03-03T12:25:53.233Z,38.00
2018-03-03T12:28:20.800Z,37.80
2018-03-03T12:30:48.435Z,37.60
2018-03-03T12:33:16.048Z,37.50
2018-03-03T12:35:44.411Z,37.50
2018-03-03T12:38:12.149Z,37.50
2018-03-03T12:40:39.835Z,38.00
2018-03-03T12:43:07.663Z,37.20
2018-03-03T12:45:35.307Z,37.00
2018-03-03T12:48:03.164Z,37.00
2018-03-03T12:50:31.261Z,37.40
2018-03-03T12:52:58.830Z,36.80
2018-03-03T12:55:26.999Z,36.80
2018-03-03T12:57:54.695Z,37.10
2018-03-03T13:00:22.237Z,37.00
2018-03-03T13:02:49.801Z,37.00
2018-03-03T13:05:17.492Z,36.80
2018-03-03T13:07:45.441Z,37.30
2018-03-03T13:10:13.010Z,37.00
2018-03-03T13:12:41.301Z,37.10
2018-03-03T13:15:09.641Z,37.10
2018-03-03T13:17:37.255Z,37.00
2018-03-03T13:20:04.765Z,37.10
2018-03-03T13:22:32.324Z,36.90
2018-03-03T13:24:59.870Z,36.80
2018-03-03T13:27:27.463Z,36.60
2018-03-03T13:29:54.985Z,36.70
2018-03-03T13:32:22.886Z,36.90
2018-03-03T13:34:50.409Z,37.00
2018-03-03T13:37:17.920Z,37.20
2018-03-03T13:39:45.452Z,37.40
2018-03-03T13:42:12.954Z,37.50
2018-03-03T13:44:40.512Z,37.80
2018-03-03T13:47:08.190Z,37.70
2018-03-03T13:49:35.901Z,37.10
2018-03-03T13:52:03.450Z,37.30
2018-03-03T13:54:30.995Z,37.00
2018-03-03T13:56:58.549Z,37.00
2018-03-03T13:59:26.248Z,37.20
2018-03-03T14:01:53.797Z,37.40
2018-03-03T14:04:21.472Z,37.60
2018-03-03T14:06:49.286Z,37.70
2018-03-03T14:09:16.848Z,37.70
2018-03-03T14:11:44.636Z,37.70
2018-03-03T14:14:12.183Z,38.00
2018-03-03T14:16:40.594Z,38.00
2018-03-03T14:19:08.187Z,37.90
2018-03-03T14:21:35.720Z,38.30
2018-03-03T14:24:03.993Z,38.60
2018-03-03T14:26:31.557Z,38.30
2018-03-03T14:28:59.187Z,38.50
2018-03-03T14:31:26.933Z,38.70
2018-03-03T14:33:54.636Z,38.70
2018-03-03T14:36:22.244Z,39.10
2018-03-03T14:38:50.589Z,39.00
2018-03-03T14:41:18.172Z,39.00
2018-03-03T14:43:45.769Z,38.70
2018-03-03T14:46:14.076Z,39.20
2018-03-03T14:48:41.633Z,39.20
2018-03-03T14:51:11.083Z,39.30
2018-03-03T14:53:38.600Z,38.90
2018-03-03T14:56:08.800Z,38.60
2018-03-03T14:58:37.142Z,38.50
2018-03-03T15:01:04.676Z,38.80
2018-03-03T15:03:32.373Z,38.80
2018-03-03T15:06:00.031Z,38.60
2018-03-03T15:08:27.769Z,38.90
2018-03-03T15:10:55.302Z,39.00
2018-03-03T15:13:22.915Z,39.30
2018-03-03T15:15:50.452Z,39.00
2018-03-03T15:18:18.424Z,39.00
2018-03-03T15:20:48.948Z,39.00
2018-03-03T15:23:16.575Z,39.00
2018-03-03T15:25:44.107Z,39.40
2018-03-03T15:28:15.952Z,39.40
2018-03-03T15:30:43.486Z,39.60
2018-03-03T15:33:11.037Z,39.80
2018-03-03T15:35:38.612Z,40.00
2018-03-03T15:38:06.166Z,40.20
2018-03-03T15:40:33.728Z,40.30
2018-03-03T15:43:01.335Z,40.30
2018-03-03T15:45:29.742Z,40.20
2018-03-03T15:47:57.510Z,40.20
2018-03-03T15:50:25.222Z,40.40
2018-03-03T15:52:52.772Z,40.70
2018-03-03T15:55:20.287Z,40.40
2018-03-03T15:57:47.925Z,40.10
2018-03-03T16:00:15.446Z,40.30
2018-03-03T16:02:43.003Z,40.30
2018-03-03T16:05:10.610Z,40.30
2018-03-03T16:07:39.007Z,40.60
2018-03-03T16:10:06.787Z,40.60
2018-03-03T16:12:34.327Z,40.90
2018-03-03T16:15:02.694Z,41.10
2018-03-03T16:17:31.103Z,41.50
2018-03-03T16:19:58.829Z,41.50
2018-03-03T16:22:26.600Z,41.70
2018-03-03T16:24:55.101Z,41.90
2018-03-03T16:27:23.021Z,41.90
2018-03-03T16:29:51.358Z,42.20
2018-03-03T16:32:18.912Z,42.20
2018-03-03T16:34:46.557Z,42.30
2018-03-03T16:37:14.916Z,42.60
2018-03-03T16:39:43.237Z,42.60
2018-03-03T16:42:10.807Z,42.60
2018-03-03T16:44:38.368Z,42.40
2018-03-03T16:47:05.974Z,42.60
2018-03-03T16:49:33.721Z,42.70
2018-03-03T16:52:01.275Z,42.90
2018-03-03T16:54:29.325Z,43.10
2018-03-03T16:56:56.940Z,43.10
2018-03-03T16:59:25.308Z,43.30
2018-03-03T17:01:53.118Z,43.30
2018-03-03T17:04:20.690Z,43.40
2018-03-03T17:06:48.263Z,43.30
2018-03-03T17:09:15.797Z,43.60
2018-03-03T17:11:43.389Z,43.50
2018-03-03T17:14:10.912Z,43.60
2018-03-03T17:16:38.477Z,43.20
2018-03-03T17:19:06.139Z,43.30
2018-03-03T17:21:33.686Z,43.20
2018-03-03T17:24:01.234Z,43.20
2018-03-03T17:26:29.561Z,43.40
2018-03-03T17:28:57.126Z,43.30
2018-03-03T17:31:24.766Z,43.50
2018-03-03T17:33:52.523Z,43.60
2018-03-03T17:36:20.122Z,43.60
2018-03-03T17:38:48.525Z,43.60
2018-03-03T17:41:16.361Z,43.60
2018-03-03T17:43:45.048Z,43.60
2018-03-03T17:46:13.436Z,43.90
2018-03-03T17:48:42.002Z,43.90
2018-03-03T17:51:09.635Z,43.70
2018-03-03T17:53:37.310Z,43.80
2018-03-03T17:56:05.975Z,43.90
2018-03-03T17:58:33.530Z,44.00
2018-03-03T18:01:03.938Z,44.20
2018-03-03T18:03:31.740Z,44.20
2018-03-03T18:06:01.600Z,44.20
2018-03-03T18:08:30.473Z,44.10
2018-03-03T18:11:04.479Z,44.20
2018-03-03T18:13:32.104Z,44.40
2018-03-03T18:15:59.752Z,44.20
2018-03-03T18:18:27.912Z,44.40
2018-03-03T18:20:55.848Z,44.40
2018-03-03T18:23:23.449Z,44.50
2018-03-03T18:25:52.636Z,44.50
2018-03-03T18:28:20.354Z,44.50
2018-03-03T18:30:47.915Z,44.60
2018-03-03T18:33:15.529Z,44.60
2018-03-03T18:35:43.829Z,44.80
2018-03-03T18:38:11.403Z,44.80
2018-03-03T18:40:38.949Z,44.80
2018-03-03T18:43:06.550Z,44.90
2018-03-03T18:45:34.091Z,44.90
2018-03-03T18:48:01.677Z,44.90
2018-03-03T18:50:29.269Z,44.70
2018-03-03T18:52:57.075Z,44.70
2018-03-03T18:55:24.736Z,44.80
2018-03-03T18:57:53.119Z,44.80
2018-03-03T19:00:20.628Z,44.80
2018-03-03T19:02:48.497Z,44.80
2018-03-03T19:05:16.058Z,45.10
2018-03-03T19:07:43.577Z,45.10
2018-03-03T19:10:11.162Z,44.70
2018-03-03T19:12:38.696Z,44.80
2018-03-03T19:15:06.261Z,45.00
2018-03-03T19:17:33.910Z,44.80
2018-03-03T19:20:01.621Z,44.80
2018-03-03T19:22:29.183Z,45.00
2018-03-03T19:24:57.509Z,45.80
2018-03-03T19:27:25.057Z,45.10
2018-03-03T19:29:52.645Z,45.00
2018-03-03T19:32:20.441Z,45.10
2018-03-03T19:34:48.002Z,45.30
2018-03-03T19:37:15.560Z,45.40
2018-03-03T19:39:43.604Z,45.40
2018-03-03T19:42:11.483Z,45.50
2018-03-03T19:44:39.191Z,45.60
2018-03-03T19:47:06.776Z,45.70
2018-03-03T19:49:34.354Z,45.70
2018-03-03T19:52:01.999Z,45.70
2018-03-03T19:54:29.581Z,45.70
2018-03-03T19:56:57.385Z,45.70
2018-03-03T19:59:25.762Z,45.90
2018-03-03T20:01:53.504Z,45.80
2018-03-03T20:04:21.097Z,46.10
2018-03-03T20:06:49.620Z,46.20
2018-03-03T20:09:17.239Z,46.20
2018-03-03T20:11:45.655Z,46.20
2018-03-03T20:14:13.211Z,46.10
2018-03-03T20:16:41.425Z,46.30
2018-03-03T20:19:09.087Z,46.40
2018-03-03T20:21:37.227Z,46.60
2018-03-03T20:24:04.788Z,46.60
2018-03-03T20:26:32.335Z,46.70
2018-03-03T20:28:59.872Z,46.90
2018-03-03T20:31:28.304Z,46.90
2018-03-03T20:33:55.838Z,46.90
2018-03-03T20:36:23.426Z,47.00
2018-03-03T20:38:51.042Z,47.00
2018-03-03T20:41:18.704Z,46.90
2018-03-03T20:43:47.031Z,47.20
2018-03-03T20:46:14.695Z,47.20
2018-03-03T20:48:42.234Z,47.10
2018-03-03T20:51:10.148Z,47.20
2018-03-03T20:53:37.885Z,47.10
2018-03-03T20:56:05.464Z,47.20
2018-03-03T20:58:33.020Z,47.30
2018-03-03T21:01:00.551Z,47.30
2018-03-03T21:03:28.105Z,47.30
2018-03-03T21:05:55.727Z,47.50
2018-03-03T21:08:24.342Z,47.60
2018-03-03T21:10:51.923Z,47.60
2018-03-03T21:13:19.465Z,47.70
2018-03-03T21:15:47.010Z,47.80
2018-03-03T21:18:14.916Z,47.80
2018-03-03T21:20:42.656Z,47.80
2018-03-03T21:23:10.200Z,47.80
2018-03-03T21:25:37.806Z,47.70
2018-03-03T21:28:05.337Z,47.60
2018-03-03T21:30:33.559Z,47.90
2018-03-03T21:33:01.298Z,47.80
2018-03-03T21:35:28.885Z,48.00
2018-03-03T21:37:56.434Z,48.00
2018-03-03T21:40:23.990Z,48.10
2018-03-03T21:42:51.546Z,48.20
2018-03-03T21:45:19.388Z,48.20
2018-03-03T21:47:46.953Z,48.30
2018-03-03T21:50:14.481Z,48.40
2018-03-03T21:52:42.049Z,48.40
2018-03-03T21:55:09.568Z,48.40
2018-03-03T21:57:37.106Z,48.30
2018-03-03T22:00:04.665Z,48.40
2018-03-03T22:02:32.243Z,48.40
2018-03-03T22:04:59.769Z,48.40
2018-03-03T22:07:27.288Z,48.40
2018-03-03T22:09:55.605Z,48.60
2018-03-03T22:12:23.711Z,48.60
2018-03-03T22:14:51.344Z,48.60
2018-03-03T22:17:18.861Z,48.70
2018-03-03T22:19:47.175Z,48.90
2018-03-03T22:22:14.741Z,49.50
2018-03-03T22:24:42.337Z,49.10
2018-03-03T22:27:09.894Z,49.10
2018-03-03T22:29:37.618Z,49.20
2018-03-03T22:32:05.145Z,49.10
2018-03-03T22:34:33.495Z,49.30
2018-03-03T22:37:01.323Z,49.30
2018-03-03T22:39:28.886Z,49.20
2018-03-03T22:41:56.439Z,49.30
2018-03-03T22:44:24.218Z,49.40
2018-03-03T22:46:51.746Z,49.30
2018-03-03T22:49:19.313Z,49.30
2018-03-03T22:51:46.901Z,49.40
2018-03-03T22:54:14.445Z,49.50
2018-03-03T22:56:42.016Z,49.40
2018-03-03T22:59:09.541Z,49.50
2018-03-03T23:01:37.066Z,49.50
2018-03-03T23:04:04.885Z,49.40
2018-03-03T23:06:32.446Z,49.60
2018-03-03T23:09:00.762Z,49.80
2018-03-03T23:11:28.392Z,49.80
2018-03-03T23:13:56.419Z,50.20
2018-03-03T23:16:24.048Z,49.60
2018-03-03T23:18:51.612Z,49.50
2018-03-03T23:21:19.255Z,49.60
2018-03-03T23:23:47.908Z,49.60
2018-03-03T23:26:16.209Z,49.70
2018-03-03T23:28:44.024Z,49.70
2018-03-03T23:31:11.604Z,49.60
2018-03-03T23:33:39.325Z,49.80
2018-03-03T23:36:06.930Z,49.70
2018-03-03T23:38:34.492Z,49.60
2018-03-03T23:41:02.325Z,49.70
2018-03-03T23:43:30.078Z,50.10
2018-03-03T23:45:57.614Z,49.70
2018-03-03T23:48:25.146Z,49.60
2018-03-03T23:50:52.720Z,49.80
2018-03-03T23:53:20.267Z,50.30
2018-03-03T23:55:47.878Z,49.60
2018-03-03T23:58:15.745Z,49.70
